sensor_id;sensor_type;location;lat;lon;timestamp;pressure;altitude;pressure_sealevel;temperature;humidity
10342;BME280;5216;54.602;18.356;2024-03-02T00:00:21;101114.50;;;12.62;62.16
10342;BME280;5216;54.602;18.356;2024-03-02T00:02:49;101114.50;;;12.62;62.12
10342;BME280;5216;54.602;18.356;2024-03-02T00:05:20;101117.19;;;12.62;62.08
10342;BME280;5216;54.602;18.356;2024-03-02T00:07:53;101116.19;;;12.63;62.16
10342;BME280;5216;54.602;18.356;2024-03-02T00:10:26;101116.19;;;12.63;62.00
10342;BME280;5216;54.602;18.356;2024-03-02T00:12:58;101108.13;;;12.63;61.98
10342;BME280;5216;54.602;18.356;2024-03-02T00:15:47;101110.81;;;12.63;61.80
10342;BME280;5216;54.602;18.356;2024-03-02T00:18:18;101110.09;;;12.61;62.12
10342;BME280;5216;54.602;18.356;2024-03-02T00:20:46;101105.03;;;12.58;62.29
10342;BME280;5216;54.602;18.356;2024-03-02T00:23:17;101098.97;;;12.56;62.33
10342;BME280;5216;54.602;18.356;2024-03-02T00:25:51;101104.31;;;12.56;62.53
10342;BME280;5216;54.602;18.356;2024-03-02T00:28:30;101097.25;;;12.55;62.40
10342;BME280;5216;54.602;18.356;2024-03-02T00:31:08;101110.66;;;12.55;62.29
10342;BME280;5216;54.602;18.356;2024-03-02T00:33:37;101111.38;;;12.57;62.73
10342;BME280;5216;54.602;18.356;2024-03-02T00:36:06;101109.69;;;12.56;62.51
10342;BME280;5216;54.602;18.356;2024-03-02T00:38:34;101116.72;;;12.57;62.34
10342;BME280;5216;54.602;18.356;2024-03-02T00:41:05;101106.84;;;12.58;62.72
10342;BME280;5216;54.602;18.356;2024-03-02T00:43:45;101112.22;;;12.58;62.61
10342;BME280;5216;54.602;18.356;2024-03-02T00:46:16;101107.72;;;12.58;62.48
10342;BME280;5216;54.602;18.356;2024-03-02T00:51:50;101103.31;;;12.57;62.69
10342;BME280;5216;54.602;18.356;2024-03-02T00:54:27;101108.81;;;12.56;62.71
10342;BME280;5216;54.602;18.356;2024-03-02T00:56:55;101100.94;;;12.54;62.38
10342;BME280;5216;54.602;18.356;2024-03-02T00:59:23;101100.94;;;12.54;62.67
10342;BME280;5216;54.602;18.356;2024-03-02T01:01:50;101100.94;;;12.54;62.82
10342;BME280;5216;54.602;18.356;2024-03-02T01:04:18;101093.84;;;12.53;62.59
10342;BME280;5216;54.602;18.356;2024-03-02T01:06:44;101093.03;;;12.53;62.83
10342;BME280;5216;54.602;18.356;2024-03-02T01:09:12;101094.69;;;12.54;62.91
10342;BME280;5216;54.602;18.356;2024-03-02T01:11:39;101091.88;;;12.55;62.66
10342;BME280;5216;54.602;18.356;2024-03-02T01:14:06;101089.34;;;12.54;62.42
10342;BME280;5216;54.602;18.356;2024-03-02T01:16:33;101087.66;;;12.53;62.49
10342;BME280;5216;54.602;18.356;2024-03-02T01:18:59;101086.81;;;12.52;62.24
10342;BME280;5216;54.602;18.356;2024-03-02T01:21:26;101085.94;;;12.52;62.59
10342;BME280;5216;54.602;18.356;2024-03-02T01:23:53;101084.38;;;12.49;62.32
10342;BME280;5216;54.602;18.356;2024-03-02T01:26:20;101084.38;;;12.49;62.28
10342;BME280;5216;54.602;18.356;2024-03-02T01:28:47;101091.84;;;12.46;62.35
10342;BME280;5216;54.602;18.356;2024-03-02T01:31:13;101082.25;;;12.44;62.20
10342;BME280;5216;54.602;18.356;2024-03-02T01:33:40;101080.59;;;12.43;62.45
10342;BME280;5216;54.602;18.356;2024-03-02T01:36:07;101085.06;;;12.42;62.42
10342;BME280;5216;54.602;18.356;2024-03-02T01:38:35;101093.28;;;12.41;62.54
10342;BME280;5216;54.602;18.356;2024-03-02T01:41:02;101084.53;;;12.39;62.43
10342;BME280;5216;54.602;18.356;2024-03-02T01:43:29;101085.50;;;12.38;62.25
10342;BME280;5216;54.602;18.356;2024-03-02T01:45:55;101080.25;;;12.36;62.78
10342;BME280;5216;54.602;18.356;2024-03-02T01:48:23;101083.06;;;12.35;62.45
10342;BME280;5216;54.602;18.356;2024-03-02T01:50:50;101080.13;;;12.38;62.70
10342;BME280;5216;54.602;18.356;2024-03-02T01:53:16;101083.66;;;12.38;62.51
10342;BME280;5216;54.602;18.356;2024-03-02T01:55:43;101078.28;;;12.38;62.17
10342;BME280;5216;54.602;18.356;2024-03-02T01:58:10;101075.47;;;12.40;62.06
10342;BME280;5216;54.602;18.356;2024-03-02T02:00:37;101072.94;;;12.38;62.07
10342;BME280;5216;54.602;18.356;2024-03-02T02:03:04;101077.19;;;12.41;61.58
10342;BME280;5216;54.602;18.356;2024-03-02T02:05:31;101071.13;;;12.39;61.52
10342;BME280;5216;54.602;18.356;2024-03-02T02:07:58;101070.38;;;12.37;61.99
10342;BME280;5216;54.602;18.356;2024-03-02T02:10:25;101070.78;;;12.32;61.75
10342;BME280;5216;54.602;18.356;2024-03-02T02:12:52;101061.22;;;12.30;61.77
10342;BME280;5216;54.602;18.356;2024-03-02T02:15:29;101070.22;;;12.29;61.48
10342;BME280;5216;54.602;18.356;2024-03-02T02:17:57;101085.31;;;12.30;61.96
10342;BME280;5216;54.602;18.356;2024-03-02T02:20:25;101087.56;;;12.25;61.94
10342;BME280;5216;54.602;18.356;2024-03-02T02:22:58;101077.53;;;12.27;61.89
10342;BME280;5216;54.602;18.356;2024-03-02T02:25:26;101076.84;;;12.25;62.19
10342;BME280;5216;54.602;18.356;2024-03-02T02:27:54;101078.53;;;12.26;61.81
10342;BME280;5216;54.602;18.356;2024-03-02T02:30:24;101078.53;;;12.26;61.89
10342;BME280;5216;54.602;18.356;2024-03-02T02:32:51;101077.00;;;12.23;62.24
10342;BME280;5216;54.602;18.356;2024-03-02T02:35:18;101090.09;;;12.26;62.44
10342;BME280;5216;54.602;18.356;2024-03-02T02:37:46;101090.94;;;12.27;62.15
10342;BME280;5216;54.602;18.356;2024-03-02T02:40:14;101080.22;;;12.27;62.26
10342;BME280;5216;54.602;18.356;2024-03-02T02:42:41;101084.75;;;12.26;62.06
10342;BME280;5216;54.602;18.356;2024-03-02T02:45:08;101083.50;;;12.30;61.85
10342;BME280;5216;54.602;18.356;2024-03-02T02:47:35;101081.66;;;12.31;62.21
10342;BME280;5216;54.602;18.356;2024-03-02T02:50:25;101083.63;;;12.29;62.29
10342;BME280;5216;54.602;18.356;2024-03-02T02:52:51;101083.63;;;12.29;62.12
10342;BME280;5216;54.602;18.356;2024-03-02T02:55:18;101079.13;;;12.29;62.17
10342;BME280;5216;54.602;18.356;2024-03-02T02:57:45;101068.53;;;12.28;61.60
10342;BME280;5216;54.602;18.356;2024-03-02T03:00:14;101071.22;;;12.28;61.89
10342;BME280;5216;54.602;18.356;2024-03-02T03:02:45;101076.69;;;12.26;61.48
10342;BME280;5216;54.602;18.356;2024-03-02T03:05:14;101076.84;;;12.25;61.75
10342;BME280;5216;54.602;18.356;2024-03-02T03:07:42;101066.97;;;12.25;61.92
10342;BME280;5216;54.602;18.356;2024-03-02T03:10:10;101063.72;;;12.22;61.91
10342;BME280;5216;54.602;18.356;2024-03-02T03:12:37;101064.13;;;12.17;61.60
10342;BME280;5216;54.602;18.356;2024-03-02T03:15:05;101065.94;;;12.17;61.92
10342;BME280;5216;54.602;18.356;2024-03-02T03:17:33;101067.53;;;12.19;62.24
10342;BME280;5216;54.602;18.356;2024-03-02T03:20:02;101059.63;;;12.18;61.81
10342;BME280;5216;54.602;18.356;2024-03-02T03:22:30;101047.19;;;12.17;61.96
10342;BME280;5216;54.602;18.356;2024-03-02T03:25:02;101062.44;;;12.16;62.08
10342;BME280;5216;54.602;18.356;2024-03-02T03:27:30;101058.91;;;12.16;62.01
10342;BME280;5216;54.602;18.356;2024-03-02T03:29:57;101060.88;;;12.14;61.45
10342;BME280;5216;54.602;18.356;2024-03-02T03:32:25;101060.16;;;12.12;62.24
10342;BME280;5216;54.602;18.356;2024-03-02T03:34:52;101059.28;;;12.12;61.84
10342;BME280;5216;54.602;18.356;2024-03-02T03:37:18;101070.00;;;12.12;62.28
10342;BME280;5216;54.602;18.356;2024-03-02T03:39:45;101067.19;;;12.13;62.12
10342;BME280;5216;54.602;18.356;2024-03-02T03:42:12;101068.91;;;12.14;62.26
10342;BME280;5216;54.602;18.356;2024-03-02T03:44:39;101067.19;;;12.13;62.13
10342;BME280;5216;54.602;18.356;2024-03-02T03:47:07;101061.59;;;12.16;62.23
10342;BME280;5216;54.602;18.356;2024-03-02T03:49:33;101062.56;;;12.15;62.18
10342;BME280;5216;54.602;18.356;2024-03-02T03:52:00;101057.06;;;12.16;62.01
10342;BME280;5216;54.602;18.356;2024-03-02T03:54:27;101053.09;;;12.11;61.89
10342;BME280;5216;54.602;18.356;2024-03-02T03:56:53;101057.06;;;12.16;62.33
10342;BME280;5216;54.602;18.356;2024-03-02T03:59:20;101046.47;;;12.15;61.84
10342;BME280;5216;54.602;18.356;2024-03-02T04:01:47;101059.88;;;12.15;62.25
10342;BME280;5216;54.602;18.356;2024-03-02T04:04:14;101057.91;;;12.17;62.31
10342;BME280;5216;54.602;18.356;2024-03-02T04:06:40;101062.44;;;12.16;62.16
10342;BME280;5216;54.602;18.356;2024-03-02T04:09:07;101059.75;;;12.16;62.33
10342;BME280;5216;54.602;18.356;2024-03-02T04:11:34;101051.59;;;12.18;62.06
10342;BME280;5216;54.602;18.356;2024-03-02T04:14:01;101056.94;;;12.18;62.29
10342;BME280;5216;54.602;18.356;2024-03-02T04:16:28;101057.91;;;12.17;62.51
10342;BME280;5216;54.602;18.356;2024-03-02T04:18:55;101058.91;;;12.16;62.23
10342;BME280;5216;54.602;18.356;2024-03-02T04:21:22;101049.56;;;12.11;62.30
10342;BME280;5216;54.602;18.356;2024-03-02T04:23:48;101055.78;;;12.11;61.82
10342;BME280;5216;54.602;18.356;2024-03-02T04:26:15;101056.78;;;12.10;62.41
10342;BME280;5216;54.602;18.356;2024-03-02T04:28:46;101069.47;;;12.08;62.52
10342;BME280;5216;54.602;18.356;2024-03-02T04:31:15;101073.09;;;12.07;62.47
10342;BME280;5216;54.602;18.356;2024-03-02T04:33:41;101080.44;;;12.05;62.36
10342;BME280;5216;54.602;18.356;2024-03-02T04:36:08;101087.16;;;12.00;62.71
10342;BME280;5216;54.602;18.356;2024-03-02T04:38:38;101095.06;;;12.01;62.23
10342;BME280;5216;54.602;18.356;2024-03-02T04:41:06;101087.31;;;11.98;62.70
10342;BME280;5216;54.602;18.356;2024-03-02T04:43:33;101083.78;;;11.98;62.37
10342;BME280;5216;54.602;18.356;2024-03-02T04:46:00;101069.66;;;11.96;62.39
10342;BME280;5216;54.602;18.356;2024-03-02T04:48:27;101086.03;;;11.93;62.51
10342;BME280;5216;54.602;18.356;2024-03-02T04:50:54;101085.19;;;11.92;62.86
10342;BME280;5216;54.602;18.356;2024-03-02T04:53:21;101083.47;;;11.91;62.66
10342;BME280;5216;54.602;18.356;2024-03-02T04:55:48;101080.66;;;11.93;62.78
10342;BME280;5216;54.602;18.356;2024-03-02T04:58:20;101081.78;;;11.90;63.06
10342;BME280;5216;54.602;18.356;2024-03-02T05:00:47;101071.91;;;11.91;63.01
10342;BME280;5216;54.602;18.356;2024-03-02T05:03:14;101074.97;;;11.86;62.71
10342;BME280;5216;54.602;18.356;2024-03-02T05:05:41;101082.63;;;11.91;63.08
10342;BME280;5216;54.602;18.356;2024-03-02T05:08:07;101082.88;;;11.88;62.53
10342;BME280;5216;54.602;18.356;2024-03-02T05:10:34;101081.91;;;11.89;62.83
10342;BME280;5216;54.602;18.356;2024-03-02T05:13:03;101087.28;;;11.89;63.11
10342;BME280;5216;54.602;18.356;2024-03-02T05:15:29;101076.69;;;11.87;62.72
10342;BME280;5216;54.602;18.356;2024-03-02T05:17:56;101075.44;;;11.91;62.60
10342;BME280;5216;54.602;18.356;2024-03-02T05:20:24;101090.53;;;11.92;62.86
10342;BME280;5216;54.602;18.356;2024-03-02T05:22:51;101088.00;;;11.91;63.08
10342;BME280;5216;54.602;18.356;2024-03-02T05:25:17;101073.03;;;11.88;62.54
10342;BME280;5216;54.602;18.356;2024-03-02T05:27:45;101072.16;;;11.88;63.03
10342;BME280;5216;54.602;18.356;2024-03-02T05:30:13;101080.06;;;11.89;63.20
10342;BME280;5216;54.602;18.356;2024-03-02T05:32:40;101087.88;;;11.92;62.71
10342;BME280;5216;54.602;18.356;2024-03-02T05:35:07;101084.31;;;11.92;62.54
10342;BME280;5216;54.602;18.356;2024-03-02T05:37:34;101078.94;;;11.92;62.37
10342;BME280;5216;54.602;18.356;2024-03-02T05:40:01;101082.34;;;11.94;62.91
10342;BME280;5216;54.602;18.356;2024-03-02T05:42:28;101086.63;;;11.96;62.39
10342;BME280;5216;54.602;18.356;2024-03-02T05:44:55;101092.81;;;11.97;62.57
10342;BME280;5216;54.602;18.356;2024-03-02T05:47:21;101093.66;;;11.97;62.63
10342;BME280;5216;54.602;18.356;2024-03-02T05:49:48;101099.84;;;11.98;62.32
10342;BME280;5216;54.602;18.356;2024-03-02T05:52:15;101092.94;;;11.95;62.37
10342;BME280;5216;54.602;18.356;2024-03-02T05:54:42;101103.66;;;11.95;62.44
10342;BME280;5216;54.602;18.356;2024-03-02T05:57:08;101092.50;;;11.90;62.61
10342;BME280;5216;54.602;18.356;2024-03-02T05:59:58;101087.16;;;11.90;62.73
10342;BME280;5216;54.602;18.356;2024-03-02T06:02:25;101098.13;;;11.87;63.05
10342;BME280;5216;54.602;18.356;2024-03-02T06:04:54;101092.75;;;11.87;62.82
10342;BME280;5216;54.602;18.356;2024-03-02T06:07:21;101099.06;;;11.86;62.64
10342;BME280;5216;54.602;18.356;2024-03-02T06:09:48;101097.41;;;11.85;62.85
10342;BME280;5216;54.602;18.356;2024-03-02T06:12:17;101112.75;;;11.83;62.68
10342;BME280;5216;54.602;18.356;2024-03-02T06:14:44;101113.00;;;11.80;62.90
10342;BME280;5216;54.602;18.356;2024-03-02T06:17:10;101122.88;;;11.80;62.69
10342;BME280;5216;54.602;18.356;2024-03-02T06:19:37;101129.34;;;11.77;63.00
10342;BME280;5216;54.602;18.356;2024-03-02T06:22:04;101122.28;;;11.76;63.33
10342;BME280;5216;54.602;18.356;2024-03-02T06:24:32;101134.00;;;11.76;63.13
10342;BME280;5216;54.602;18.356;2024-03-02T06:26:58;101131.31;;;11.76;63.13
10342;BME280;5216;54.602;18.356;2024-03-02T06:29:25;101129.59;;;11.75;63.68
10342;BME280;5216;54.602;18.356;2024-03-02T06:31:52;101144.59;;;11.77;63.04
10342;BME280;5216;54.602;18.356;2024-03-02T06:34:20;101134.72;;;11.77;62.82
10342;BME280;5216;54.602;18.356;2024-03-02T06:36:47;101130.31;;;11.76;63.19
10342;BME280;5216;54.602;18.356;2024-03-02T06:39:14;101138.22;;;11.78;63.22
10342;BME280;5216;54.602;18.356;2024-03-02T06:41:41;101140.06;;;11.77;63.11
10342;BME280;5216;54.602;18.356;2024-03-02T06:44:09;101134.72;;;11.77;63.21
10342;BME280;5216;54.602;18.356;2024-03-02T06:46:35;101125.97;;;11.76;63.22
10342;BME280;5216;54.602;18.356;2024-03-02T06:49:02;101131.03;;;11.78;63.30
10342;BME280;5216;54.602;18.356;2024-03-02T06:51:30;101143.47;;;11.79;63.27
10342;BME280;5216;54.602;18.356;2024-03-02T06:53:57;101133.47;;;11.81;63.57
10342;BME280;5216;54.602;18.356;2024-03-02T06:56:24;101136.13;;;11.81;63.46
10342;BME280;5216;54.602;18.356;2024-03-02T06:58:51;101136.13;;;11.81;63.33
10342;BME280;5216;54.602;18.356;2024-03-02T07:01:17;101138.53;;;11.84;63.62
10342;BME280;5216;54.602;18.356;2024-03-02T07:03:44;101145.47;;;11.87;63.17
10342;BME280;5216;54.602;18.356;2024-03-02T07:06:11;101146.91;;;11.91;63.54
10342;BME280;5216;54.602;18.356;2024-03-02T07:08:37;101138.75;;;11.92;63.28
10342;BME280;5216;54.602;18.356;2024-03-02T07:11:04;101127.31;;;11.90;63.30
10342;BME280;5216;54.602;18.356;2024-03-02T07:13:31;101140.56;;;11.92;62.63
10342;BME280;5216;54.602;18.356;2024-03-02T07:15:58;101140.72;;;11.90;62.77
10342;BME280;5216;54.602;18.356;2024-03-02T07:18:31;101146.06;;;11.90;62.82
10342;BME280;5216;54.602;18.356;2024-03-02T07:20:58;101140.00;;;11.88;62.92
10342;BME280;5216;54.602;18.356;2024-03-02T07:23:26;101148.88;;;11.89;62.63
10342;BME280;5216;54.602;18.356;2024-03-02T07:25:53;101149.97;;;11.86;62.72
10342;BME280;5216;54.602;18.356;2024-03-02T07:28:26;101146.31;;;11.87;63.16
10342;BME280;5216;54.602;18.356;2024-03-02T07:31:00;101141.69;;;11.89;62.89
10342;BME280;5216;54.602;18.356;2024-03-02T07:33:28;101140.72;;;11.90;63.31
10342;BME280;5216;54.602;18.356;2024-03-02T07:35:55;101134.66;;;11.88;63.03
10342;BME280;5216;54.602;18.356;2024-03-02T07:38:22;101140.44;;;11.93;63.03
10342;BME280;5216;54.602;18.356;2024-03-02T07:40:49;101127.75;;;11.95;62.85
10342;BME280;5216;54.602;18.356;2024-03-02T07:43:19;101125.78;;;11.97;62.91
10342;BME280;5216;54.602;18.356;2024-03-02T07:45:47;101135.25;;;12.01;63.31
10342;BME280;5216;54.602;18.356;2024-03-02T07:48:14;101124.28;;;12.04;63.58
10342;BME280;5216;54.602;18.356;2024-03-02T07:50:41;101133.75;;;12.08;62.80
10342;BME280;5216;54.602;18.356;2024-03-02T07:53:09;101136.28;;;12.10;63.29
10342;BME280;5216;54.602;18.356;2024-03-02T07:55:36;101147.59;;;12.13;63.32
10342;BME280;5216;54.602;18.356;2024-03-02T07:58:03;101139.44;;;12.14;63.39
10342;BME280;5216;54.602;18.356;2024-03-02T08:00:30;101125.91;;;12.16;62.84
10342;BME280;5216;54.602;18.356;2024-03-02T08:02:57;101123.94;;;12.18;62.81
10342;BME280;5216;54.602;18.356;2024-03-02T08:05:23;101120.41;;;12.17;62.92
10342;BME280;5216;54.602;18.356;2024-03-02T08:07:50;101120.41;;;12.17;63.27
10342;BME280;5216;54.602;18.356;2024-03-02T08:10:19;101125.63;;;12.19;62.93
10342;BME280;5216;54.602;18.356;2024-03-02T08:12:46;101108.69;;;12.18;63.08
10342;BME280;5216;54.602;18.356;2024-03-02T08:15:13;101136.75;;;12.14;63.03
10342;BME280;5216;54.602;18.356;2024-03-02T08:17:40;101156.34;;;12.15;62.68
10342;BME280;5216;54.602;18.356;2024-03-02T08:20:16;101163.66;;;12.13;62.57
10342;BME280;5216;54.602;18.356;2024-03-02T08:22:43;101139.84;;;12.10;62.38
10342;BME280;5216;54.602;18.356;2024-03-02T08:25:10;101132.75;;;12.09;62.71
10342;BME280;5216;54.602;18.356;2024-03-02T08:27:37;101148.13;;;12.07;62.62
10342;BME280;5216;54.602;18.356;2024-03-02T08:30:05;101149.25;;;12.05;62.70
10342;BME280;5216;54.602;18.356;2024-03-02T08:32:33;101151.09;;;12.04;62.63
10342;BME280;5216;54.602;18.356;2024-03-02T08:35:01;101164.47;;;12.04;62.59
10342;BME280;5216;54.602;18.356;2024-03-02T08:37:28;101172.06;;;11.99;62.60
10342;BME280;5216;54.602;18.356;2024-03-02T08:39:54;101168.41;;;12.00;62.64
10342;BME280;5216;54.602;18.356;2024-03-02T08:42:22;101145.25;;;11.99;62.61
10342;BME280;5216;54.602;18.356;2024-03-02T08:44:49;101156.81;;;12.00;63.15
10342;BME280;5216;54.602;18.356;2024-03-02T08:47:16;101154.00;;;12.01;62.84
10342;BME280;5216;54.602;18.356;2024-03-02T08:49:43;101157.69;;;12.00;62.41
10342;BME280;5216;54.602;18.356;2024-03-02T08:52:10;101180.81;;;12.01;62.93
10342;BME280;5216;54.602;18.356;2024-03-02T08:54:37;101177.41;;;11.99;62.14
10342;BME280;5216;54.602;18.356;2024-03-02T08:57:07;101152.88;;;11.94;62.19
10342;BME280;5216;54.602;18.356;2024-03-02T08:59:35;101169.19;;;11.91;62.24
10342;BME280;5216;54.602;18.356;2024-03-02T09:02:02;101148.03;;;11.88;62.60
10342;BME280;5216;54.602;18.356;2024-03-02T09:04:29;101152.41;;;11.89;62.98
10342;BME280;5216;54.602;18.356;2024-03-02T09:07:01;101155.66;;;11.93;62.96
10342;BME280;5216;54.602;18.356;2024-03-02T09:09:28;101175.97;;;11.95;63.26
10342;BME280;5216;54.602;18.356;2024-03-02T09:11:56;101172.06;;;11.99;62.48
10342;BME280;5216;54.602;18.356;2024-03-02T09:14:37;101165.56;;;12.02;62.72
10342;BME280;5216;54.602;18.356;2024-03-02T09:17:04;101153.47;;;12.07;62.67
10342;BME280;5216;54.602;18.356;2024-03-02T09:19:31;101163.94;;;12.10;62.69
10342;BME280;5216;54.602;18.356;2024-03-02T09:21:58;101161.13;;;12.12;62.98
10342;BME280;5216;54.602;18.356;2024-03-02T09:24:25;101187.41;;;12.17;62.94
10342;BME280;5216;54.602;18.356;2024-03-02T09:26:52;101168.50;;;12.19;62.92
10342;BME280;5216;54.602;18.356;2024-03-02T09:29:19;101180.63;;;12.23;63.08
10342;BME280;5216;54.602;18.356;2024-03-02T09:31:47;101176.00;;;12.25;63.15
10342;BME280;5216;54.602;18.356;2024-03-02T09:34:14;101180.38;;;12.26;62.84
10342;BME280;5216;54.602;18.356;2024-03-02T09:36:45;101160.63;;;12.27;62.60
10342;BME280;5216;54.602;18.356;2024-03-02T09:39:12;101163.06;;;12.30;62.89
10342;BME280;5216;54.602;18.356;2024-03-02T09:41:39;101167.41;;;12.31;62.70
10342;BME280;5216;54.602;18.356;2024-03-02T09:44:07;101163.06;;;12.30;62.49
10342;BME280;5216;54.602;18.356;2024-03-02T09:46:36;101176.16;;;12.33;62.42
10342;BME280;5216;54.602;18.356;2024-03-02T09:49:03;101181.81;;;12.30;62.35
10342;BME280;5216;54.602;18.356;2024-03-02T09:51:31;101184.38;;;12.31;62.67
10342;BME280;5216;54.602;18.356;2024-03-02T09:54:00;101178.13;;;12.31;62.43
10342;BME280;5216;54.602;18.356;2024-03-02T09:56:44;101185.94;;;12.34;62.16
10342;BME280;5216;54.602;18.356;2024-03-02T09:59:11;101192.00;;;12.36;61.91
10342;BME280;5216;54.602;18.356;2024-03-02T10:01:40;101195.53;;;12.36;62.08
10342;BME280;5216;54.602;18.356;2024-03-02T10:04:07;101202.72;;;12.36;62.03
10342;BME280;5216;54.602;18.356;2024-03-02T10:06:34;101209.78;;;12.37;62.10
10342;BME280;5216;54.602;18.356;2024-03-02T10:09:02;101218.56;;;12.39;61.97
10342;BME280;5216;54.602;18.356;2024-03-02T10:11:34;101215.72;;;12.40;61.69
10342;BME280;5216;54.602;18.356;2024-03-02T10:14:13;101206.72;;;12.41;61.54
10342;BME280;5216;54.602;18.356;2024-03-02T10:16:41;101204.03;;;12.41;62.01
10342;BME280;5216;54.602;18.356;2024-03-02T10:19:21;101202.47;;;12.39;61.92
10342;BME280;5216;54.602;18.356;2024-03-02T10:21:53;101200.16;;;12.34;61.79
10342;BME280;5216;54.602;18.356;2024-03-02T10:24:21;101206.97;;;12.38;61.99
10342;BME280;5216;54.602;18.356;2024-03-02T10:26:49;101214.28;;;12.36;61.76
10342;BME280;5216;54.602;18.356;2024-03-02T10:29:29;101212.44;;;12.37;62.25
10342;BME280;5216;54.602;18.356;2024-03-02T10:31:56;101214.88;;;12.40;61.85
10342;BME280;5216;54.602;18.356;2024-03-02T10:34:27;101216.59;;;12.41;61.88
10342;BME280;5216;54.602;18.356;2024-03-02T10:36:57;101215.59;;;12.42;61.75
10342;BME280;5216;54.602;18.356;2024-03-02T10:39:25;101207.28;;;12.45;61.86
10342;BME280;5216;54.602;18.356;2024-03-02T10:41:53;101207.00;;;12.48;62.04
10342;BME280;5216;54.602;18.356;2024-03-02T10:44:22;101192.34;;;12.51;62.08
10342;BME280;5216;54.602;18.356;2024-03-02T10:46:49;101192.09;;;12.54;61.81
10342;BME280;5216;54.602;18.356;2024-03-02T10:49:20;101198.72;;;12.60;61.96
10342;BME280;5216;54.602;18.356;2024-03-02T10:51:48;101209.91;;;12.65;61.54
10342;BME280;5216;54.602;18.356;2024-03-02T10:54:15;101208.66;;;12.69;61.91
10342;BME280;5216;54.602;18.356;2024-03-02T10:56:44;101193.88;;;12.74;61.70
10342;BME280;5216;54.602;18.356;2024-03-02T11:01:55;101197.72;;;12.81;61.31
10342;BME280;5216;54.602;18.356;2024-03-02T11:04:30;101201.81;;;12.85;61.34
10342;BME280;5216;54.602;18.356;2024-03-02T11:07:06;101194.47;;;12.87;61.28
10342;BME280;5216;54.602;18.356;2024-03-02T11:09:35;101191.09;;;12.85;60.67
10342;BME280;5216;54.602;18.356;2024-03-02T11:12:06;101187.31;;;12.88;61.15
10342;BME280;5216;54.602;18.356;2024-03-02T11:14:41;101195.06;;;12.90;61.86
10342;BME280;5216;54.602;18.356;2024-03-02T11:17:15;101185.50;;;12.97;61.75
10342;BME280;5216;54.602;18.356;2024-03-02T11:19:43;101191.13;;;13.04;61.87
10342;BME280;5216;54.602;18.356;2024-03-02T11:22:12;101181.81;;;13.08;61.81
10342;BME280;5216;54.602;18.356;2024-03-02T11:24:48;101182.97;;;13.15;61.73
10342;BME280;5216;54.602;18.356;2024-03-02T11:27:58;101196.56;;;13.23;61.68
10342;BME280;5216;54.602;18.356;2024-03-02T11:33:02;101186.97;;;13.58;61.48
10342;BME280;5216;54.602;18.356;2024-03-02T11:35:42;101188.63;;;13.77;61.13
10342;BME280;5216;54.602;18.356;2024-03-02T11:38:15;101184.41;;;13.94;60.54
10342;BME280;5216;54.602;18.356;2024-03-02T11:40:43;101181.97;;;14.09;60.09
10342;BME280;5216;54.602;18.356;2024-03-02T11:43:10;101184.22;;;14.23;59.80
10342;BME280;5216;54.602;18.356;2024-03-02T11:45:38;101182.03;;;14.36;59.24
10342;BME280;5216;54.602;18.356;2024-03-02T11:48:08;101185.38;;;14.47;59.05
10342;BME280;5216;54.602;18.356;2024-03-02T11:50:52;101190.59;;;14.58;58.92
10342;BME280;5216;54.602;18.356;2024-03-02T11:53:20;101184.16;;;14.69;58.84
10342;BME280;5216;54.602;18.356;2024-03-02T11:55:47;101182.59;;;14.75;58.16
10342;BME280;5216;54.602;18.356;2024-03-02T11:58:16;101184.66;;;14.81;58.06
10342;BME280;5216;54.602;18.356;2024-03-02T12:00:53;101185.22;;;14.85;57.87
10342;BME280;5216;54.602;18.356;2024-03-02T12:03:22;101180.38;;;14.88;57.63
10342;BME280;5216;54.602;18.356;2024-03-02T12:05:50;101179.84;;;14.85;57.25
10342;BME280;5216;54.602;18.356;2024-03-02T12:08:17;101173.31;;;14.87;57.62
10342;BME280;5216;54.602;18.356;2024-03-02T12:10:56;101169.53;;;14.98;57.99
10342;BME280;5216;54.602;18.356;2024-03-02T12:13:23;101163.25;;;15.16;57.85
10342;BME280;5216;54.602;18.356;2024-03-02T12:15:53;101170.09;;;15.28;57.10
10342;BME280;5216;54.602;18.356;2024-03-02T12:18:20;101171.56;;;15.40;56.36
10342;BME280;5216;54.602;18.356;2024-03-02T12:23:18;101174.19;;;15.66;55.90
10342;BME280;5216;54.602;18.356;2024-03-02T12:25:45;101183.72;;;15.78;55.30
10342;BME280;5216;54.602;18.356;2024-03-02T12:28:12;101182.06;;;15.85;54.84
10342;BME280;5216;54.602;18.356;2024-03-02T12:30:39;101178.75;;;15.91;54.33
10342;BME280;5216;54.602;18.356;2024-03-02T12:33:06;101191.25;;;15.92;54.31
10342;BME280;5216;54.602;18.356;2024-03-02T12:35:33;101186.16;;;15.89;55.13
10342;BME280;5216;54.602;18.356;2024-03-02T12:38:00;101191.41;;;15.73;54.84
10342;BME280;5216;54.602;18.356;2024-03-02T12:40:26;101186.19;;;15.54;55.15
10342;BME280;5216;54.602;18.356;2024-03-02T12:42:54;101189.72;;;15.38;55.65
10342;BME280;5216;54.602;18.356;2024-03-02T12:45:20;101193.94;;;15.23;56.92
10342;BME280;5216;54.602;18.356;2024-03-02T12:47:52;101192.41;;;15.11;56.73
10342;BME280;5216;54.602;18.356;2024-03-02T12:50:20;101191.63;;;15.01;57.24
10342;BME280;5216;54.602;18.356;2024-03-02T12:52:54;101194.22;;;14.93;57.25
10342;BME280;5216;54.602;18.356;2024-03-02T12:55:22;101194.00;;;14.87;57.30
10342;BME280;5216;54.602;18.356;2024-03-02T12:57:50;101185.41;;;14.74;57.56
10342;BME280;5216;54.602;18.356;2024-03-02T13:00:19;101193.25;;;14.68;57.90
10342;BME280;5216;54.602;18.356;2024-03-02T13:02:47;101189.84;;;14.66;58.05
10342;BME280;5216;54.602;18.356;2024-03-02T13:05:15;101185.44;;;14.65;58.09
10342;BME280;5216;54.602;18.356;2024-03-02T13:07:42;101186.03;;;14.59;57.90